sensor_id;sensor_type;location;lat;lon;timestamp;P1;durP1;ratioP1;P2;durP2;ratioP2
44145;SDS011;29809;52.432;4.780;2023-10-08T00:00:24;9.55;;;4.57;;
44145;SDS011;29809;52.432;4.780;2023-10-08T00:03:08;10.35;;;4.45;;
44145;SDS011;29809;52.432;4.780;2023-10-08T00:05:38;10.02;;;4.25;;
44145;SDS011;29809;52.432;4.780;2023-10-08T00:08:04;11.88;;;4.55;;
44145;SDS011;29809;52.432;4.780;2023-10-08T00:10:38;11.40;;;4.40;;
44145;SDS011;29809;52.432;4.780;2023-10-08T00:13:08;11.77;;;4.93;;
44145;SDS011;29809;52.432;4.780;2023-10-08T00:15:37;10.20;;;4.55;;
44145;SDS011;29809;52.432;4.780;2023-10-08T00:18:06;11.25;;;4.72;;
44145;SDS011;29809;52.432;4.780;2023-10-08T00:20:32;12.00;;;4.10;;
44145;SDS011;29809;52.432;4.780;2023-10-08T00:23:07;10.38;;;4.07;;
44145;SDS011;29809;52.432;4.780;2023-10-08T00:25:34;9.00;;;4.03;;
44145;SDS011;29809;52.432;4.780;2023-10-08T00:27:59;8.38;;;3.95;;
44145;SDS011;29809;52.432;4.780;2023-10-08T00:30:26;7.90;;;4.00;;
44145;SDS011;29809;52.432;4.780;2023-10-08T00:32:52;12.60;;;4.43;;
44145;SDS011;29809;52.432;4.780;2023-10-08T00:35:17;11.20;;;4.35;;
44145;SDS011;29809;52.432;4.780;2023-10-08T00:37:45;6.85;;;3.78;;
44145;SDS011;29809;52.432;4.780;2023-10-08T00:40:11;7.18;;;3.80;;
44145;SDS011;29809;52.432;4.780;2023-10-08T00:42:38;8.98;;;3.60;;
44145;SDS011;29809;52.432;4.780;2023-10-08T00:45:10;8.95;;;4.55;;
44145;SDS011;29809;52.432;4.780;2023-10-08T00:47:38;6.85;;;3.95;;
44145;SDS011;29809;52.432;4.780;2023-10-08T00:50:08;9.70;;;4.18;;
44145;SDS011;29809;52.432;4.780;2023-10-08T00:52:35;11.65;;;4.53;;
44145;SDS011;29809;52.432;4.780;2023-10-08T00:55:10;7.47;;;4.13;;
44145;SDS011;29809;52.432;4.780;2023-10-08T00:57:45;8.55;;;4.07;;
44145;SDS011;29809;52.432;4.780;2023-10-08T01:00:14;8.57;;;3.55;;
44145;SDS011;29809;52.432;4.780;2023-10-08T01:02:46;7.32;;;4.22;;
44145;SDS011;29809;52.432;4.780;2023-10-08T01:05:14;7.85;;;3.90;;
44145;SDS011;29809;52.432;4.780;2023-10-08T01:07:42;9.38;;;3.90;;
44145;SDS011;29809;52.432;4.780;2023-10-08T01:10:14;8.90;;;3.80;;
44145;SDS011;29809;52.432;4.780;2023-10-08T01:12:44;6.70;;;3.80;;
44145;SDS011;29809;52.432;4.780;2023-10-08T01:15:27;6.22;;;3.63;;
44145;SDS011;29809;52.432;4.780;2023-10-08T01:17:56;8.68;;;3.90;;
44145;SDS011;29809;52.432;4.780;2023-10-08T01:20:31;7.75;;;3.38;;
44145;SDS011;29809;52.432;4.780;2023-10-08T01:23:01;9.18;;;3.90;;
44145;SDS011;29809;52.432;4.780;2023-10-08T01:25:29;7.97;;;4.47;;
44145;SDS011;29809;52.432;4.780;2023-10-08T01:27:56;6.55;;;3.38;;
44145;SDS011;29809;52.432;4.780;2023-10-08T01:30:21;6.93;;;4.05;;
44145;SDS011;29809;52.432;4.780;2023-10-08T01:32:46;6.55;;;3.58;;
44145;SDS011;29809;52.432;4.780;2023-10-08T01:35:12;8.52;;;4.07;;
44145;SDS011;29809;52.432;4.780;2023-10-08T01:37:47;4.65;;;3.25;;
44145;SDS011;29809;52.432;4.780;2023-10-08T01:40:13;7.05;;;3.63;;
44145;SDS011;29809;52.432;4.780;2023-10-08T01:42:38;11.02;;;4.28;;
44145;SDS011;29809;52.432;4.780;2023-10-08T01:45:04;5.95;;;3.50;;
44145;SDS011;29809;52.432;4.780;2023-10-08T01:47:31;7.90;;;3.75;;
44145;SDS011;29809;52.432;4.780;2023-10-08T01:49:57;8.15;;;3.85;;
44145;SDS011;29809;52.432;4.780;2023-10-08T01:52:30;7.90;;;4.07;;
44145;SDS011;29809;52.432;4.780;2023-10-08T01:54:55;7.43;;;4.05;;
44145;SDS011;29809;52.432;4.780;2023-10-08T01:57:21;7.03;;;3.90;;
44145;SDS011;29809;52.432;4.780;2023-10-08T01:59:46;7.05;;;3.58;;
44145;SDS011;29809;52.432;4.780;2023-10-08T02:02:11;7.15;;;3.58;;
44145;SDS011;29809;52.432;4.780;2023-10-08T02:04:39;8.15;;;4.05;;
44145;SDS011;29809;52.432;4.780;2023-10-08T02:07:05;8.98;;;3.40;;
44145;SDS011;29809;52.432;4.780;2023-10-08T02:09:36;10.85;;;3.58;;
44145;SDS011;29809;52.432;4.780;2023-10-08T02:12:02;9.43;;;4.05;;
44145;SDS011;29809;52.432;4.780;2023-10-08T02:14:29;7.80;;;3.33;;
44145;SDS011;29809;52.432;4.780;2023-10-08T02:16:57;7.57;;;4.28;;
44145;SDS011;29809;52.432;4.780;2023-10-08T02:19:22;9.90;;;3.47;;
44145;SDS011;29809;52.432;4.780;2023-10-08T02:21:56;8.90;;;4.00;;
44145;SDS011;29809;52.432;4.780;2023-10-08T02:24:23;8.90;;;4.30;;
44145;SDS011;29809;52.432;4.780;2023-10-08T02:26:51;9.50;;;3.95;;
44145;SDS011;29809;52.432;4.780;2023-10-08T02:29:17;9.95;;;3.72;;
44145;SDS011;29809;52.432;4.780;2023-10-08T02:31:42;7.55;;;4.00;;
44145;SDS011;29809;52.432;4.780;2023-10-08T02:34:08;9.45;;;4.15;;
44145;SDS011;29809;52.432;4.780;2023-10-08T02:36:37;5.57;;;4.00;;
44145;SDS011;29809;52.432;4.780;2023-10-08T02:39:06;9.43;;;3.55;;
44145;SDS011;29809;52.432;4.780;2023-10-08T02:41:38;5.32;;;3.00;;
44145;SDS011;29809;52.432;4.780;2023-10-08T02:44:06;8.43;;;3.40;;
44145;SDS011;29809;52.432;4.780;2023-10-08T02:46:32;7.00;;;3.08;;
44145;SDS011;29809;52.432;4.780;2023-10-08T02:48:58;7.65;;;3.33;;
44145;SDS011;29809;52.432;4.780;2023-10-08T02:51:23;6.97;;;3.10;;
44145;SDS011;29809;52.432;4.780;2023-10-08T02:53:49;8.30;;;3.28;;
44145;SDS011;29809;52.432;4.780;2023-10-08T02:56:15;5.90;;;2.97;;
44145;SDS011;29809;52.432;4.780;2023-10-08T02:58:40;6.03;;;3.15;;
44145;SDS011;29809;52.432;4.780;2023-10-08T03:01:09;6.47;;;3.00;;
44145;SDS011;29809;52.432;4.780;2023-10-08T03:03:40;8.65;;;3.67;;
44145;SDS011;29809;52.432;4.780;2023-10-08T03:06:07;4.40;;;2.60;;
44145;SDS011;29809;52.432;4.780;2023-10-08T03:08:36;4.07;;;2.50;;
44145;SDS011;29809;52.432;4.780;2023-10-08T03:11:02;9.55;;;3.63;;
44145;SDS011;29809;52.432;4.780;2023-10-08T03:13:30;4.50;;;2.63;;
44145;SDS011;29809;52.432;4.780;2023-10-08T03:15:56;5.75;;;2.88;;
44145;SDS011;29809;52.432;4.780;2023-10-08T03:18:27;8.63;;;3.22;;
44145;SDS011;29809;52.432;4.780;2023-10-08T03:21:01;5.85;;;2.15;;
44145;SDS011;29809;52.432;4.780;2023-10-08T03:23:29;6.20;;;2.35;;
44145;SDS011;29809;52.432;4.780;2023-10-08T03:26:02;5.60;;;2.35;;
44145;SDS011;29809;52.432;4.780;2023-10-08T03:28:37;3.75;;;2.17;;
44145;SDS011;29809;52.432;4.780;2023-10-08T03:31:02;4.57;;;1.95;;
44145;SDS011;29809;52.432;4.780;2023-10-08T03:33:31;5.93;;;2.08;;
44145;SDS011;29809;52.432;4.780;2023-10-08T03:35:59;4.93;;;1.80;;
44145;SDS011;29809;52.432;4.780;2023-10-08T03:38:25;3.08;;;1.92;;
44145;SDS011;29809;52.432;4.780;2023-10-08T03:41:09;3.72;;;1.58;;
44145;SDS011;29809;52.432;4.780;2023-10-08T03:43:35;3.78;;;2.08;;
44145;SDS011;29809;52.432;4.780;2023-10-08T03:46:08;3.08;;;1.58;;
44145;SDS011;29809;52.432;4.780;2023-10-08T03:48:40;3.22;;;1.67;;
44145;SDS011;29809;52.432;4.780;2023-10-08T03:51:08;2.63;;;1.58;;
44145;SDS011;29809;52.432;4.780;2023-10-08T03:53:36;3.97;;;1.70;;
44145;SDS011;29809;52.432;4.780;2023-10-08T03:56:07;3.50;;;1.48;;
44145;SDS011;29809;52.432;4.780;2023-10-08T03:58:33;2.10;;;1.20;;
44145;SDS011;29809;52.432;4.780;2023-10-08T04:01:05;1.55;;;1.10;;
44145;SDS011;29809;52.432;4.780;2023-10-08T04:03:35;0.80;;;0.80;;
44145;SDS011;29809;52.432;4.780;2023-10-08T04:06:15;3.15;;;1.00;;
44145;SDS011;29809;52.432;4.780;2023-10-08T04:08:41;0.75;;;0.68;;
44145;SDS011;29809;52.432;4.780;2023-10-08T04:11:20;1.90;;;1.13;;
44145;SDS011;29809;52.432;4.780;2023-10-08T04:13:55;1.20;;;0.85;;
44145;SDS011;29809;52.432;4.780;2023-10-08T04:16:24;0.98;;;0.80;;
44145;SDS011;29809;52.432;4.780;2023-10-08T04:18:52;1.40;;;0.80;;
44145;SDS011;29809;52.432;4.780;2023-10-08T04:21:21;2.40;;;1.02;;
44145;SDS011;29809;52.432;4.780;2023-10-08T04:23:47;1.45;;;0.73;;
44145;SDS011;29809;52.432;4.780;2023-10-08T04:26:18;4.20;;;0.95;;
44145;SDS011;29809;52.432;4.780;2023-10-08T04:28:48;0.60;;;0.60;;
44145;SDS011;29809;52.432;4.780;2023-10-08T04:31:14;1.30;;;0.70;;
44145;SDS011;29809;52.432;4.780;2023-10-08T04:33:43;2.30;;;0.90;;
44145;SDS011;29809;52.432;4.780;2023-10-08T04:36:09;0.73;;;0.70;;
44145;SDS011;29809;52.432;4.780;2023-10-08T04:38:34;2.45;;;0.88;;
44145;SDS011;29809;52.432;4.780;2023-10-08T04:41:05;0.90;;;0.60;;
44145;SDS011;29809;52.432;4.780;2023-10-08T04:43:34;0.60;;;0.50;;
44145;SDS011;29809;52.432;4.780;2023-10-08T04:46:03;0.57;;;0.50;;
44145;SDS011;29809;52.432;4.780;2023-10-08T04:48:45;1.65;;;0.65;;
44145;SDS011;29809;52.432;4.780;2023-10-08T04:51:10;0.90;;;0.70;;
44145;SDS011;29809;52.432;4.780;2023-10-08T04:53:38;2.15;;;0.70;;
44145;SDS011;29809;52.432;4.780;2023-10-08T04:56:08;0.70;;;0.70;;
44145;SDS011;29809;52.432;4.780;2023-10-08T04:58:43;1.52;;;0.52;;
44145;SDS011;29809;52.432;4.780;2023-10-08T05:01:12;1.38;;;0.65;;
44145;SDS011;29809;52.432;4.780;2023-10-08T05:03:54;0.55;;;0.50;;
44145;SDS011;29809;52.432;4.780;2023-10-08T05:06:39;0.70;;;0.70;;
44145;SDS011;29809;52.432;4.780;2023-10-08T05:09:15;0.38;;;0.35;;
44145;SDS011;29809;52.432;4.780;2023-10-08T05:11:43;1.75;;;0.65;;
44145;SDS011;29809;52.432;4.780;2023-10-08T05:14:32;0.60;;;0.60;;
44145;SDS011;29809;52.432;4.780;2023-10-08T05:17:01;2.78;;;0.80;;
44145;SDS011;29809;52.432;4.780;2023-10-08T05:19:34;0.75;;;0.50;;
44145;SDS011;29809;52.432;4.780;2023-10-08T05:22:14;0.77;;;0.50;;
44145;SDS011;29809;52.432;4.780;2023-10-08T05:24:48;1.10;;;0.52;;
44145;SDS011;29809;52.432;4.780;2023-10-08T05:27:53;1.10;;;0.88;;
44145;SDS011;29809;52.432;4.780;2023-10-08T05:33:01;0.85;;;0.60;;
44145;SDS011;29809;52.432;4.780;2023-10-08T05:35:42;1.58;;;0.80;;
44145;SDS011;29809;52.432;4.780;2023-10-08T05:40:42;1.20;;;0.45;;
44145;SDS011;29809;52.432;4.780;2023-10-08T05:46:12;2.90;;;0.47;;
44145;SDS011;29809;52.432;4.780;2023-10-08T05:48:50;2.53;;;0.55;;
44145;SDS011;29809;52.432;4.780;2023-10-08T05:51:31;0.75;;;0.40;;
44145;SDS011;29809;52.432;4.780;2023-10-08T05:54:12;0.65;;;0.50;;
44145;SDS011;29809;52.432;4.780;2023-10-08T05:56:50;1.63;;;0.50;;
44145;SDS011;29809;52.432;4.780;2023-10-08T05:59:34;1.25;;;0.45;;
44145;SDS011;29809;52.432;4.780;2023-10-08T06:02:18;0.85;;;0.40;;
44145;SDS011;29809;52.432;4.780;2023-10-08T06:05:02;0.70;;;0.55;;
44145;SDS011;29809;52.432;4.780;2023-10-08T06:07:44;0.45;;;0.45;;
44145;SDS011;29809;52.432;4.780;2023-10-08T06:10:21;2.40;;;0.45;;
44145;SDS011;29809;52.432;4.780;2023-10-08T06:13:05;1.33;;;0.70;;
44145;SDS011;29809;52.432;4.780;2023-10-08T06:15:55;1.40;;;0.47;;
44145;SDS011;29809;52.432;4.780;2023-10-08T06:18:27;127.22;;;31.50;;
44145;SDS011;29809;52.432;4.780;2023-10-08T06:20:55;194.20;;;45.65;;
44145;SDS011;29809;52.432;4.780;2023-10-08T06:23:24;102.10;;;28.13;;
44145;SDS011;29809;52.432;4.780;2023-10-08T06:25:50;62.90;;;17.55;;
44145;SDS011;29809;52.432;4.780;2023-10-08T06:28:23;49.75;;;16.08;;
44145;SDS011;29809;52.432;4.780;2023-10-08T06:30:51;45.35;;;13.15;;
44145;SDS011;29809;52.432;4.780;2023-10-08T06:33:20;35.35;;;11.40;;
44145;SDS011;29809;52.432;4.780;2023-10-08T06:35:46;33.47;;;10.95;;
44145;SDS011;29809;52.432;4.780;2023-10-08T06:38:29;25.58;;;8.90;;
44145;SDS011;29809;52.432;4.780;2023-10-08T06:41:01;24.65;;;10.05;;
44145;SDS011;29809;52.432;4.780;2023-10-08T06:43:39;27.42;;;9.88;;
44145;SDS011;29809;52.432;4.780;2023-10-08T06:46:08;21.55;;;7.40;;
44145;SDS011;29809;52.432;4.780;2023-10-08T06:48:37;19.15;;;6.25;;
44145;SDS011;29809;52.432;4.780;2023-10-08T06:51:02;14.82;;;6.13;;
44145;SDS011;29809;52.432;4.780;2023-10-08T06:53:38;17.02;;;4.30;;
44145;SDS011;29809;52.432;4.780;2023-10-08T06:56:04;12.18;;;4.53;;
44145;SDS011;29809;52.432;4.780;2023-10-08T06:58:32;12.38;;;4.22;;
44145;SDS011;29809;52.432;4.780;2023-10-08T07:00:58;8.15;;;3.40;;
44145;SDS011;29809;52.432;4.780;2023-10-08T07:03:23;5.22;;;3.00;;
44145;SDS011;29809;52.432;4.780;2023-10-08T07:05:49;7.97;;;3.20;;
44145;SDS011;29809;52.432;4.780;2023-10-08T07:08:25;8.82;;;3.95;;
44145;SDS011;29809;52.432;4.780;2023-10-08T07:10:52;5.97;;;3.10;;
44145;SDS011;29809;52.432;4.780;2023-10-08T07:13:18;8.00;;;3.22;;
44145;SDS011;29809;52.432;4.780;2023-10-08T07:15:46;5.25;;;2.75;;
44145;SDS011;29809;52.432;4.780;2023-10-08T07:18:12;4.45;;;1.88;;
44145;SDS011;29809;52.432;4.780;2023-10-08T07:20:46;6.15;;;2.30;;
44145;SDS011;29809;52.432;4.780;2023-10-08T07:23:18;2.40;;;1.70;;
44145;SDS011;29809;52.432;4.780;2023-10-08T07:25:57;2.05;;;1.35;;
44145;SDS011;29809;52.432;4.780;2023-10-08T07:28:43;3.65;;;1.52;;
44145;SDS011;29809;52.432;4.780;2023-10-08T07:31:15;2.92;;;1.10;;
44145;SDS011;29809;52.432;4.780;2023-10-08T07:33:41;5.18;;;1.02;;
44145;SDS011;29809;52.432;4.780;2023-10-08T07:36:09;4.25;;;1.35;;
44145;SDS011;29809;52.432;4.780;2023-10-08T07:38:38;3.25;;;1.20;;
44145;SDS011;29809;52.432;4.780;2023-10-08T07:41:04;3.70;;;1.50;;
44145;SDS011;29809;52.432;4.780;2023-10-08T07:43:31;4.53;;;1.42;;
44145;SDS011;29809;52.432;4.780;2023-10-08T07:45:57;2.08;;;1.33;;
44145;SDS011;29809;52.432;4.780;2023-10-08T07:48:23;3.28;;;1.35;;
44145;SDS011;29809;52.432;4.780;2023-10-08T07:50:54;3.83;;;1.10;;
44145;SDS011;29809;52.432;4.780;2023-10-08T07:53:20;4.15;;;1.10;;
44145;SDS011;29809;52.432;4.780;2023-10-08T07:55:45;1.85;;;1.13;;
44145;SDS011;29809;52.432;4.780;2023-10-08T07:58:12;2.47;;;0.93;;
44145;SDS011;29809;52.432;4.780;2023-10-08T08:00:39;3.25;;;1.25;;
44145;SDS011;29809;52.432;4.780;2023-10-08T08:03:06;1.25;;;0.80;;
44145;SDS011;29809;52.432;4.780;2023-10-08T08:05:31;2.53;;;0.90;;
44145;SDS011;29809;52.432;4.780;2023-10-08T08:07:56;1.25;;;0.80;;
44145;SDS011;29809;52.432;4.780;2023-10-08T08:10:24;1.63;;;0.70;;
44145;SDS011;29809;52.432;4.780;2023-10-08T08:12:50;2.67;;;1.10;;
44145;SDS011;29809;52.432;4.780;2023-10-08T08:15:21;4.65;;;1.13;;
44145;SDS011;29809;52.432;4.780;2023-10-08T08:17:48;2.20;;;0.82;;
44145;SDS011;29809;52.432;4.780;2023-10-08T08:20:13;2.85;;;1.02;;
44145;SDS011;29809;52.432;4.780;2023-10-08T08:22:58;2.83;;;0.93;;
44145;SDS011;29809;52.432;4.780;2023-10-08T08:25:31;0.80;;;0.43;;
44145;SDS011;29809;52.432;4.780;2023-10-08T08:28:07;2.53;;;0.70;;
44145;SDS011;29809;52.432;4.780;2023-10-08T08:30:41;1.70;;;0.50;;
44145;SDS011;29809;52.432;4.780;2023-10-08T08:33:08;1.67;;;0.80;;
44145;SDS011;29809;52.432;4.780;2023-10-08T08:35:35;2.50;;;1.13;;
44145;SDS011;29809;52.432;4.780;2023-10-08T08:38:00;4.50;;;0.63;;
44145;SDS011;29809;52.432;4.780;2023-10-08T08:40:26;1.80;;;0.70;;
44145;SDS011;29809;52.432;4.780;2023-10-08T08:42:52;2.45;;;0.60;;
44145;SDS011;29809;52.432;4.780;2023-10-08T08:45:21;4.80;;;0.77;;
44145;SDS011;29809;52.432;4.780;2023-10-08T08:47:46;3.20;;;0.85;;
44145;SDS011;29809;52.432;4.780;2023-10-08T08:50:12;4.38;;;0.90;;
44145;SDS011;29809;52.432;4.780;2023-10-08T08:52:38;4.90;;;0.82;;
44145;SDS011;29809;52.432;4.780;2023-10-08T08:55:04;1.33;;;0.80;;
44145;SDS011;29809;52.432;4.780;2023-10-08T08:57:34;1.42;;;0.70;;
44145;SDS011;29809;52.432;4.780;2023-10-08T09:00:00;2.00;;;0.90;;
44145;SDS011;29809;52.432;4.780;2023-10-08T09:02:27;2.60;;;0.70;;
44145;SDS011;29809;52.432;4.780;2023-10-08T09:04:53;5.55;;;0.90;;
44145;SDS011;29809;52.432;4.780;2023-10-08T09:07:19;1.90;;;0.75;;
44145;SDS011;29809;52.432;4.780;2023-10-08T09:09:46;1.77;;;0.88;;
44145;SDS011;29809;52.432;4.780;2023-10-08T09:12:11;2.13;;;0.98;;
44145;SDS011;29809;52.432;4.780;2023-10-08T09:14:37;3.45;;;0.75;;
44145;SDS011;29809;52.432;4.780;2023-10-08T09:17:05;2.63;;;0.88;;
44145;SDS011;29809;52.432;4.780;2023-10-08T09:19:30;2.05;;;0.40;;
44145;SDS011;29809;52.432;4.780;2023-10-08T09:22:04;1.13;;;0.50;;
44145;SDS011;29809;52.432;4.780;2023-10-08T09:24:30;1.42;;;0.65;;
44145;SDS011;29809;52.432;4.780;2023-10-08T09:26:55;0.40;;;0.40;;
44145;SDS011;29809;52.432;4.780;2023-10-08T09:29:24;1.23;;;0.50;;
44145;SDS011;29809;52.432;4.780;2023-10-08T09:31:53;1.15;;;0.57;;
44145;SDS011;29809;52.432;4.780;2023-10-08T09:34:21;5.43;;;0.68;;
44145;SDS011;29809;52.432;4.780;2023-10-08T09:36:47;0.70;;;0.63;;
44145;SDS011;29809;52.432;4.780;2023-10-08T09:39:12;4.82;;;1.13;;
44145;SDS011;29809;52.432;4.780;2023-10-08T09:41:48;5.88;;;1.85;;
44145;SDS011;29809;52.432;4.780;2023-10-08T09:44:14;8.65;;;1.90;;
44145;SDS011;29809;52.432;4.780;2023-10-08T09:46:40;6.78;;;1.35;;
44145;SDS011;29809;52.432;4.780;2023-10-08T09:49:07;3.10;;;1.60;;
44145;SDS011;29809;52.432;4.780;2023-10-08T09:51:37;1.75;;;1.30;;
44145;SDS011;29809;52.432;4.780;2023-10-08T09:54:10;4.38;;;1.35;;
44145;SDS011;29809;52.432;4.780;2023-10-08T09:56:35;5.75;;;1.58;;
44145;SDS011;29809;52.432;4.780;2023-10-08T09:59:01;2.53;;;1.17;;
44145;SDS011;29809;52.432;4.780;2023-10-08T10:01:26;2.40;;;1.33;;
44145;SDS011;29809;52.432;4.780;2023-10-08T10:03:52;5.22;;;1.67;;
44145;SDS011;29809;52.432;4.780;2023-10-08T10:06:18;1.70;;;1.10;;
44145;SDS011;29809;52.432;4.780;2023-10-08T10:08:43;3.28;;;1.60;;
44145;SDS011;29809;52.432;4.780;2023-10-08T10:11:09;4.15;;;0.90;;
44145;SDS011;29809;52.432;4.780;2023-10-08T10:13:39;1.73;;;1.02;;
44145;SDS011;29809;52.432;4.780;2023-10-08T10:16:06;2.85;;;1.20;;
44145;SDS011;29809;52.432;4.780;2023-10-08T10:18:34;2.42;;;1.10;;
44145;SDS011;29809;52.432;4.780;2023-10-08T10:21:00;2.47;;;1.20;;
44145;SDS011;29809;52.432;4.780;2023-10-08T10:23:59;2.63;;;1.20;;
44145;SDS011;29809;52.432;4.780;2023-10-08T10:26:25;2.30;;;1.10;;
44145;SDS011;29809;52.432;4.780;2023-10-08T10:31:35;2.10;;;1.20;;
44145;SDS011;29809;52.432;4.780;2023-10-08T10:34:07;3.42;;;1.45;;
44145;SDS011;29809;52.432;4.780;2023-10-08T10:36:37;3.47;;;1.15;;
44145;SDS011;29809;52.432;4.780;2023-10-08T10:39:04;2.03;;;1.23;;
44145;SDS011;29809;52.432;4.780;2023-10-08T10:41:43;2.63;;;1.17;;
44145;SDS011;29809;52.432;4.780;2023-10-08T10:44:09;2.88;;;1.05;;
44145;SDS011;29809;52.432;4.780;2023-10-08T10:46:35;2.97;;;1.17;;
44145;SDS011;29809;52.432;4.780;2023-10-08T10:49:01;4.57;;;1.30;;
44145;SDS011;29809;52.432;4.780;2023-10-08T10:51:52;3.78;;;1.27;;
44145;SDS011;29809;52.432;4.780;2023-10-08T10:54:18;2.40;;;0.98;;
44145;SDS011;29809;52.432;4.780;2023-10-08T10:56:48;3.00;;;1.10;;
44145;SDS011;29809;52.432;4.780;2023-10-08T10:59:28;5.18;;;1.35;;
44145;SDS011;29809;52.432;4.780;2023-10-08T11:01:53;2.47;;;1.27;;
44145;SDS011;29809;52.432;4.780;2023-10-08T11:04:33;2.78;;;0.98;;
44145;SDS011;29809;52.432;4.780;2023-10-08T11:07:10;2.30;;;0.88;;
44145;SDS011;29809;52.432;4.780;2023-10-08T11:09:37;4.43;;;1.30;;
44145;SDS011;29809;52.432;4.780;2023-10-08T11:12:10;3.15;;;0.88;;
44145;SDS011;29809;52.432;4.780;2023-10-08T11:14:41;2.60;;;1.13;;
44145;SDS011;29809;52.432;4.780;2023-10-08T11:17:11;1.83;;;1.13;;
44145;SDS011;29809;52.432;4.780;2023-10-08T11:19:36;3.58;;;1.17;;
44145;SDS011;29809;52.432;4.780;2023-10-08T11:22:01;4.13;;;1.15;;
44145;SDS011;29809;52.432;4.780;2023-10-08T11:24:30;1.73;;;0.90;;
44145;SDS011;29809;52.432;4.780;2023-10-08T11:27:01;1.30;;;1.00;;
44145;SDS011;29809;52.432;4.780;2023-10-08T11:29:32;2.65;;;1.00;;
44145;SDS011;29809;52.432;4.780;2023-10-08T11:31:58;1.35;;;0.90;;
44145;SDS011;29809;52.432;4.780;2023-10-08T11:34:31;2.75;;;1.00;;
44145;SDS011;29809;52.432;4.780;2023-10-08T11:37:01;1.40;;;0.70;;
44145;SDS011;29809;52.432;4.780;2023-10-08T11:39:35;2.03;;;1.00;;
44145;SDS011;29809;52.432;4.780;2023-10-08T11:42:10;1.58;;;0.80;;
44145;SDS011;29809;52.432;4.780;2023-10-08T11:44:55;0.73;;;0.68;;
44145;SDS011;29809;52.432;4.780;2023-10-08T11:47:24;1.50;;;0.75;;
44145;SDS011;29809;52.432;4.780;2023-10-08T11:49:50;1.35;;;0.85;;
44145;SDS011;29809;52.432;4.780;2023-10-08T11:52:19;1.40;;;0.90;;
44145;SDS011;29809;52.432;4.780;2023-10-08T11:54:49;3.60;;;1.00;;
44145;SDS011;29809;52.432;4.780;2023-10-08T11:57:14;2.28;;;1.10;;
44145;SDS011;29809;52.432;4.780;2023-10-08T11:59:44;2.97;;;0.73;;
44145;SDS011;29809;52.432;4.780;2023-10-08T12:02:11;3.47;;;1.17;;
44145;SDS011;29809;52.432;4.780;2023-10-08T12:04:41;2.38;;;0.90;;
44145;SDS011;29809;52.432;4.780;2023-10-08T12:07:06;1.58;;;0.90;;
44145;SDS011;29809;52.432;4.780;2023-10-08T12:09:32;1.98;;;0.82;;
44145;SDS011;29809;52.432;4.780;2023-10-08T12:12:02;2.47;;;0.90;;
44145;SDS011;29809;52.432;4.780;2023-10-08T12:14:34;2.28;;;0.93;;
44145;SDS011;29809;52.432;4.780;2023-10-08T12:16:59;2.38;;;0.90;;
44145;SDS011;29809;52.432;4.780;2023-10-08T12:19:25;2.45;;;1.13;;
44145;SDS011;29809;52.432;4.780;2023-10-08T12:21:51;1.17;;;1.00;;
44145;SDS011;29809;52.432;4.780;2023-10-08T12:24:18;1.20;;;0.90;;
44145;SDS011;29809;52.432;4.780;2023-10-08T12:26:44;1.90;;;0.80;;
44145;SDS011;29809;52.432;4.780;2023-10-08T12:29:14;0.85;;;0.73;;
44145;SDS011;29809;52.432;4.780;2023-10-08T12:31:42;1.67;;;0.75;;
44145;SDS011;29809;52.432;4.780;2023-10-08T12:34:07;2.42;;;1.13;;
44145;SDS011;29809;52.432;4.780;2023-10-08T12:36:36;4.05;;;1.10;;
44145;SDS011;29809;52.432;4.780;2023-10-08T12:39:02;2.95;;;1.17;;
44145;SDS011;29809;52.432;4.780;2023-10-08T12:41:34;2.67;;;1.00;;
44145;SDS011;29809;52.432;4.780;2023-10-08T12:44:03;2.85;;;1.02;;
44145;SDS011;29809;52.432;4.780;2023-10-08T12:46:32;4.32;;;0.95;;
44145;SDS011;29809;52.432;4.780;2023-10-08T12:48:58;2.45;;;0.90;;
44145;SDS011;29809;52.432;4.780;2023-10-08T12:51:26;1.67;;;0.82;;
44145;SDS011;29809;52.432;4.780;2023-10-08T12:53:52;1.55;;;1.10;;
44145;SDS011;29809;52.432;4.780;2023-10-08T12:56:24;2.70;;;1.00;;
44145;SDS011;29809;52.432;4.780;2023-10-08T12:58:56;1.83;;;1.08;;
44145;SDS011;29809;52.432;4.780;2023-10-08T13:01:22;2.60;;;1.00;;
44145;SDS011;29809;52.432;4.780;2023-10-08T13:03:47;1.40;;;0.95;;
44145;SDS011;29809;52.432;4.780;2023-10-08T13:06:18;2.70;;;1.08;;
44145;SDS011;29809;52.432;4.780;2023-10-08T13:08:47;1.45;;;1.00;;
44145;SDS011;29809;52.432;4.780;2023-10-08T13:11:13;0.75;;;0.75;;
44145;SDS011;29809;52.432;4.780;2023-10-08T13:13:38;0.85;;;0.82;;
44145;SDS011;29809;52.432;4.780;2023-10-08T13:16:03;1.63;;;1.00;;
44145;SDS011;29809;52.432;4.780;2023-10-08T13:18:32;1.42;;;0.75;;
44145;SDS011;29809;52.432;4.780;2023-10-08T13:20:58;1.63;;;0.90;;
44145;SDS011;29809;52.432;4.780;2023-10-08T13:23:24;1.52;;;1.00;;
44145;SDS011;29809;52.432;4.780;2023-10-08T13:25:50;1.45;;;1.35;;
44145;SDS011;29809;52.432;4.780;2023-10-08T13:28:24;2.28;;;1.40;;
44145;SDS011;29809;52.432;4.780;2023-10-08T13:30:52;1.63;;;1.10;;
44145;SDS011;29809;52.432;4.780;2023-10-08T13:33:23;1.90;;;1.23;;
44145;SDS011;29809;52.432;4.780;2023-10-08T13:35:49;1.95;;;1.13;;
44145;SDS011;29809;52.432;4.780;2023-10-08T13:38:18;3.08;;;1.30;;
44145;SDS011;29809;52.432;4.780;2023-10-08T13:40:45;1.50;;;1.17;;
44145;SDS011;29809;52.432;4.780;2023-10-08T13:43:30;3.05;;;1.40;;
44145;SDS011;29809;52.432;4.780;2023-10-08T13:46:05;1.83;;;1.13;;
44145;SDS011;29809;52.432;4.780;2023-10-08T13:48:32;2.90;;;1.10;;
44145;SDS011;29809;52.432;4.780;2023-10-08T13:50:59;2.08;;;1.30;;
44145;SDS011;29809;52.432;4.780;2023-10-08T13:53:25;2.17;;;1.30;;
44145;SDS011;29809;52.432;4.780;2023-10-08T13:55:50;3.33;;;1.80;;
44145;SDS011;29809;52.432;4.780;2023-10-08T13:58:15;2.97;;;1.50;;
44145;SDS011;29809;52.432;4.780;2023-10-08T14:00:41;1.63;;;1.00;;
44145;SDS011;29809;52.432;4.780;2023-10-08T14:03:06;2.63;;;1.50;;
44145;SDS011;29809;52.432;4.780;2023-10-08T14:05:33;1.40;;;1.17;;
44145;SDS011;29809;52.432;4.780;2023-10-08T14:07:59;2.70;;;1.45;;
44145;SDS011;29809;52.432;4.780;2023-10-08T14:10:26;3.15;;;1.67;;
44145;SDS011;29809;52.432;4.780;2023-10-08T14:12:54;2.80;;;1.65;;
44145;SDS011;29809;52.432;4.780;2023-10-08T14:15:20;2.22;;;1.63;;
44145;SDS011;29809;52.432;4.780;2023-10-08T14:17:48;2.47;;;1.48;;
44145;SDS011;29809;52.432;4.780;2023-10-08T14:20:16;2.17;;;1.48;;
44145;SDS011;29809;52.432;4.780;2023-10-08T14:22:48;2.50;;;1.83;;
44145;SDS011;29809;52.432;4.780;2023-10-08T14:25:22;4.03;;;1.95;;
44145;SDS011;29809;52.432;4.780;2023-10-08T14:27:50;2.22;;;1.20;;
44145;SDS011;29809;52.432;4.780;2023-10-08T14:30:17;1.75;;;1.63;;
44145;SDS011;29809;52.432;4.780;2023-10-08T14:32:46;2.92;;;1.80;;
44145;SDS011;29809;52.432;4.780;2023-10-08T14:35:12;3.45;;;1.60;;
44145;SDS011;29809;52.432;4.780;2023-10-08T14:37:55;2.10;;;1.48;;
44145;SDS011;29809;52.432;4.780;2023-10-08T14:40:39;3.35;;;2.33;;
44145;SDS011;29809;52.432;4.780;2023-10-08T14:43:23;3.78;;;2.22;;
44145;SDS011;29809;52.432;4.780;2023-10-08T14:45:49;2.03;;;1.40;;
44145;SDS011;29809;52.432;4.780;2023-10-08T14:48:14;3.45;;;1.92;;
44145;SDS011;29809;52.432;4.780;2023-10-08T14:50:39;3.03;;;1.85;;
44145;SDS011;29809;52.432;4.780;2023-10-08T14:53:07;4.20;;;2.53;;
44145;SDS011;29809;52.432;4.780;2023-10-08T14:55:32;3.45;;;1.98;;
44145;SDS011;29809;52.432;4.780;2023-10-08T14:58:01;2.75;;;2.13;;
44145;SDS011;29809;52.432;4.780;2023-10-08T15:00:32;3.80;;;2.15;;
44145;SDS011;29809;52.432;4.780;2023-10-08T15:03:00;2.65;;;2.10;;
44145;SDS011;29809;52.432;4.780;2023-10-08T15:05:28;3.97;;;2.22;;
44145;SDS011;29809;52.432;4.780;2023-10-08T15:07:53;4.50;;;2.55;;
44145;SDS011;29809;52.432;4.780;2023-10-08T15:10:18;2.88;;;2.15;;